Harvard, IL (60033)

8:45 PM CDT on July 25, 2016 (GMT -0500)
KILHARVA4 | | Change Station

Elev 970 ft 42.42 °N, 88.61 °W | Updated 4 minutes ago

Clear
Clear
76.7 °F
Feels Like 78 °F
N
0.0
Wind Variable Wind from NNE
Gusts 0.0 mph

Today
High -- | Low -- °F
--% Chance of Precip.
Yesterday
High -- | Low -- °F
Precip. -- in
Pressure 30.01 in
Visibility 10.0 miles
Clouds Clear
Heat Index 78 °F
Dew Point 68 °F
Humidity 74%
Rainfall 0.00 in
Snow Depth Not available.
5:40 AM 8:20 PM
Waning Gibbous, 60% visible
METAR KBUU 260135Z AUTO 00000KT 10SM CLR 22/20 A3001 RMK AO2 T02200197
Pressure 30.01 in
Visibility 10.0 miles
Clouds Clear
Heat Index 78 °F
Dew Point 68 °F
Humidity 74%
Rainfall 0.00 in
Snow Depth Not available.
5:40 AM 8:20 PM
Waning Gibbous, 60% visible
METAR KBUU 260135Z AUTO 00000KT 10SM CLR 22/20 A3001 RMK AO2 T02200197

10-Day Weather Forecast

Almanac

Astronomy

Jul. 25, 2016 Rise Set
Actual Time
Civil Twilight
Nautical Twilight
Astronomical Twilight
Moon
Length of Visible Light
Length of Day
Tomorrow will be .
, % of the Moon is Illuminated

Today's Extremes

State Highs State Lows

Community

WunderPhotos

Upload Photos

1,927,497 photos uploaded!

WunderBlog® & News

Nearby

Air Quality

  Air Quality AQ Index Pollutant
Not available.

Snow Depth

Station Depth Elevation

Earthquake Activity

City Distance Mag. Time & Date
Minimum magnitude displayed is 2.5.

Coastal Water Temperatures

Place Temperature

Stations

Nearby Weather Stations

Station Location Temp. Windchill Dew Point Humidity Wind Precip. Elev Updated Type
                   

Watches & Warnings

There are currently no watches in effect.